Været på Ålesund Lufhavn, Vigra (ENAL)

 

Time for time, neste 48 timer:

Detaljert varsel fra yr.no - 48 timer

Vindprognose for Breisundet:

Vindvarsel

Upper Winds 3000 fot akkurat nå:

ENAL akkurat nå:

  • METAR: 011320Z 12012KT CAVOK 20/08 Q1008
  • TAF: TAF 011100Z 0112/0121 13010KT CAVOK